createdAt,value
2018-06-08T00:02:22.419Z,90.90
2018-06-08T00:04:49.328Z,90.80
2018-06-08T00:07:17.060Z,90.70
2018-06-08T00:09:44.006Z,91.00
2018-06-08T00:12:10.926Z,91.70
2018-06-08T00:14:37.869Z,91.40
2018-06-08T00:17:04.776Z,92.30
2018-06-08T00:19:31.717Z,91.60
2018-06-08T00:21:58.635Z,92.60
2018-06-08T00:24:25.865Z,92.20
2018-06-08T00:26:52.793Z,92.30
2018-06-08T00:29:19.721Z,92.30
2018-06-08T00:31:46.638Z,92.70
2018-06-08T00:34:13.807Z,93.00
2018-06-08T00:36:40.724Z,93.00
2018-06-08T00:39:08.461Z,94.30
2018-06-08T00:41:35.380Z,93.90
2018-06-08T00:44:02.509Z,94.80
2018-06-08T00:46:29.429Z,95.20
2018-06-08T00:48:56.352Z,95.20
2018-06-08T00:51:23.275Z,95.00
2018-06-08T00:53:50.205Z,95.20
2018-06-08T00:56:22.979Z,95.40
2018-06-08T00:58:49.914Z,95.60
2018-06-08T01:01:16.851Z,96.10
2018-06-08T01:03:44.910Z,96.50
2018-06-08T01:06:12.474Z,96.90
2018-06-08T01:08:40.028Z,98.20
2018-06-08T01:11:06.996Z,98.80
2018-06-08T01:13:33.930Z,98.90
2018-06-08T01:16:01.145Z,99.20
2018-06-08T01:18:28.086Z,99.70
2018-06-08T01:20:55.045Z,99.90
2018-06-08T01:23:21.986Z,99.90
2018-06-08T01:25:48.898Z,99.90
2018-06-08T01:28:16.341Z,99.90
2018-06-08T01:30:43.249Z,99.90
2018-06-08T01:33:10.194Z,99.90
2018-06-08T01:35:37.123Z,99.90
2018-06-08T01:38:04.066Z,99.90
2018-06-08T01:40:30.976Z,99.90
2018-06-08T01:42:57.918Z,99.90
2018-06-08T01:45:24.830Z,99.90
2018-06-08T01:47:51.797Z,99.90
2018-06-08T01:50:18.712Z,99.90
2018-06-08T01:52:45.633Z,99.90
2018-06-08T01:55:12.576Z,99.90
2018-06-08T01:57:39.549Z,99.90
2018-06-08T02:00:06.846Z,99.90
2018-06-08T02:02:33.770Z,99.90
2018-06-08T02:05:00.719Z,99.90
2018-06-08T02:07:27.652Z,99.90
2018-06-08T02:09:54.594Z,99.90
2018-06-08T02:12:21.514Z,99.90
2018-06-08T02:14:48.452Z,99.90
2018-06-08T02:17:15.369Z,99.90
2018-06-08T02:19:42.308Z,99.90
2018-06-08T02:24:36.173Z,99.90
2018-06-08T02:27:03.085Z,99.90
2018-06-08T02:29:30.030Z,99.90
2018-06-08T02:31:56.949Z,99.90
2018-06-08T02:34:23.893Z,99.90
2018-06-08T02:36:50.814Z,99.90
2018-06-08T02:39:18.018Z,99.90
2018-06-08T02:41:44.938Z,99.90
2018-06-08T02:44:12.166Z,99.90
2018-06-08T02:46:39.087Z,99.90
2018-06-08T02:49:06.066Z,99.90
2018-06-08T02:51:33.004Z,99.90
2018-06-08T02:53:59.976Z,99.90
2018-06-08T02:56:26.897Z,99.90
2018-06-08T02:58:53.838Z,99.90
2018-06-08T03:01:20.794Z,99.90
2018-06-08T03:03:47.736Z,99.90
2018-06-08T03:06:14.646Z,99.90
2018-06-08T03:08:41.598Z,99.90
2018-06-08T03:11:08.525Z,99.90
2018-06-08T03:13:35.469Z,99.90
2018-06-08T03:16:02.386Z,99.90
2018-06-08T03:18:29.330Z,99.90
2018-06-08T03:20:56.255Z,99.90
2018-06-08T03:23:23.198Z,99.90
2018-06-08T03:25:50.118Z,99.90
2018-06-08T03:28:17.110Z,99.90
2018-06-08T03:30:44.031Z,99.90
2018-06-08T03:33:11.086Z,99.90
2018-06-08T03:35:38.325Z,99.90
2018-06-08T03:38:05.270Z,99.90
2018-06-08T03:40:32.186Z,99.90
2018-06-08T03:42:59.138Z,99.90
2018-06-08T03:45:26.066Z,99.90
2018-06-08T03:47:53.009Z,99.90
2018-06-08T03:50:19.922Z,99.90
2018-06-08T03:52:47.280Z,99.90
2018-06-08T03:57:41.409Z,99.90
2018-06-08T04:00:08.374Z,99.90
2018-06-08T04:02:35.290Z,99.90
2018-06-08T04:05:02.230Z,99.90
2018-06-08T04:07:29.437Z,99.90
2018-06-08T04:09:56.374Z,99.90
2018-06-08T04:12:23.291Z,99.90
2018-06-08T04:14:50.229Z,99.90
2018-06-08T04:17:17.145Z,99.90
2018-06-08T04:19:44.082Z,99.90
2018-06-08T04:22:10.997Z,99.90
2018-06-08T04:24:37.935Z,99.90
2018-06-08T04:27:04.851Z,99.90
2018-06-08T04:29:31.791Z,99.90
2018-06-08T04:31:58.710Z,99.90
2018-06-08T04:34:25.641Z,99.90
2018-06-08T04:36:52.552Z,99.90
2018-06-08T04:39:19.732Z,99.90
2018-06-08T04:41:46.654Z,99.90
2018-06-08T04:44:13.589Z,99.90
2018-06-08T04:46:40.774Z,99.90
2018-06-08T04:49:07.709Z,99.90
2018-06-08T04:51:34.680Z,99.90
2018-06-08T04:54:01.613Z,99.90
2018-06-08T04:56:28.554Z,99.90
2018-06-08T04:58:55.465Z,99.90
2018-06-08T05:01:22.455Z,99.90
2018-06-08T05:03:49.893Z,99.90
2018-06-08T05:06:16.833Z,99.90
2018-06-08T05:08:43.765Z,99.90
2018-06-08T05:11:10.706Z,99.90
2018-06-08T05:13:37.625Z,99.90
2018-06-08T05:16:04.561Z,99.90
2018-06-08T05:18:31.486Z,99.90
2018-06-08T05:20:58.433Z,99.90
2018-06-08T05:23:25.350Z,99.90
2018-06-08T05:25:52.303Z,99.90
2018-06-08T05:28:19.218Z,99.90
2018-06-08T05:30:46.161Z,99.90
2018-06-08T05:33:13.316Z,99.90
2018-06-08T05:35:40.257Z,99.90
2018-06-08T05:38:07.170Z,99.90
2018-06-08T05:40:34.277Z,99.90
2018-06-08T05:43:01.205Z,99.90
2018-06-08T05:45:28.142Z,99.90
2018-06-08T05:47:55.081Z,99.90
2018-06-08T05:50:22.003Z,99.90
2018-06-08T05:52:48.943Z,99.90
2018-06-08T05:55:15.861Z,99.90
2018-06-08T05:57:42.808Z,99.90
2018-06-08T06:00:09.746Z,99.90
2018-06-08T06:02:36.691Z,99.90
2018-06-08T06:05:03.610Z,99.30
2018-06-08T06:07:30.829Z,98.60
2018-06-08T06:09:57.746Z,97.30
2018-06-08T06:12:24.686Z,95.40
2018-06-08T06:14:51.668Z,96.10
2018-06-08T06:19:45.518Z,98.70
2018-06-08T06:22:12.437Z,98.90
2018-06-08T06:24:39.370Z,99.00
2018-06-08T06:27:06.286Z,98.80
2018-06-08T06:29:33.226Z,98.10
2018-06-08T06:32:00.144Z,97.80
2018-06-08T06:34:27.086Z,97.80
2018-06-08T06:36:54.003Z,98.00
2018-06-08T06:39:20.942Z,97.50
2018-06-08T06:41:48.150Z,96.40
2018-06-08T06:44:15.062Z,96.00
2018-06-08T06:46:42.006Z,94.40
2018-06-08T06:49:08.914Z,92.90
2018-06-08T06:51:35.859Z,92.30
2018-06-08T06:54:02.778Z,91.50
2018-06-08T06:56:29.717Z,90.30
2018-06-08T06:58:56.630Z,88.70
2018-06-08T07:01:23.611Z,85.00
2018-06-08T07:03:50.825Z,78.40
2018-06-08T07:06:17.766Z,75.70
2018-06-08T07:08:44.691Z,69.50
2018-06-08T07:11:11.629Z,65.70
2018-06-08T07:13:38.546Z,60.90
2018-06-08T07:16:05.815Z,62.50
2018-06-08T07:18:32.734Z,61.50
2018-06-08T07:20:59.673Z,58.70
2018-06-08T07:23:26.590Z,58.40
2018-06-08T07:25:53.534Z,56.70
2018-06-08T07:28:20.449Z,55.70
2018-06-08T07:30:47.389Z,53.10
2018-06-08T07:33:14.315Z,53.20
2018-06-08T07:35:41.267Z,56.30
2018-06-08T07:38:08.250Z,56.80
2018-06-08T07:40:35.201Z,55.50
2018-06-08T07:43:02.121Z,53.30
2018-06-08T07:45:29.066Z,54.10
2018-06-08T07:47:55.983Z,51.30
2018-06-08T07:50:22.921Z,48.90
2018-06-08T07:52:49.847Z,48.20
2018-06-08T07:55:17.293Z,48.40
2018-06-08T07:57:44.489Z,48.40
2018-06-08T08:00:11.458Z,46.80
2018-06-08T08:02:38.370Z,47.20
2018-06-08T08:05:05.318Z,46.70
2018-06-08T08:07:32.238Z,45.20
2018-06-08T08:09:59.200Z,45.50
2018-06-08T08:12:26.125Z,43.80
2018-06-08T08:14:53.505Z,44.30
2018-06-08T08:17:20.426Z,43.80
2018-06-08T08:19:47.338Z,41.90
2018-06-08T08:22:14.277Z,40.80
2018-06-08T08:24:41.303Z,40.80
2018-06-08T08:27:08.290Z,39.40
2018-06-08T08:29:35.248Z,38.40
2018-06-08T08:32:02.534Z,38.50
2018-06-08T08:34:29.846Z,39.00
2018-06-08T08:36:56.814Z,39.40
2018-06-08T08:39:23.758Z,38.60
2018-06-08T08:41:50.782Z,38.90
2018-06-08T08:44:17.750Z,36.50
2018-06-08T08:46:44.720Z,37.30
2018-06-08T08:49:11.675Z,36.80
2018-06-08T08:51:39.219Z,35.20
2018-06-08T08:54:06.138Z,35.40
2018-06-08T08:56:33.082Z,33.20
2018-06-08T08:59:00.001Z,33.40
2018-06-08T09:01:26.958Z,34.60
2018-06-08T09:03:53.949Z,36.20
2018-06-08T09:06:20.890Z,38.10
2018-06-08T09:08:47.801Z,37.30
2018-06-08T09:11:15.066Z,36.90
2018-06-08T09:13:42.011Z,36.80
2018-06-08T09:16:08.925Z,36.70
2018-06-08T09:18:36.174Z,35.30
2018-06-08T09:21:03.090Z,33.50
2018-06-08T09:23:30.031Z,35.80
2018-06-08T09:25:56.946Z,36.60
2018-06-08T09:28:23.885Z,38.10
2018-06-08T09:30:51.082Z,36.20
2018-06-08T09:33:18.035Z,34.80
2018-06-08T09:35:44.954Z,35.70
2018-06-08T09:38:11.897Z,33.80
2018-06-08T09:40:38.815Z,34.10
2018-06-08T09:43:05.758Z,33.10
2018-06-08T09:45:32.673Z,33.00
2018-06-08T09:47:59.621Z,33.80
2018-06-08T09:50:26.534Z,32.50
2018-06-08T09:52:53.473Z,32.60
2018-06-08T09:55:20.397Z,30.60
2018-06-08T09:57:47.342Z,31.80
2018-06-08T10:00:18.851Z,30.90
2018-06-08T10:02:45.785Z,31.80
2018-06-08T10:05:12.735Z,33.30
2018-06-08T10:07:39.677Z,32.50
2018-06-08T10:10:06.590Z,32.80
2018-06-08T10:12:33.530Z,30.80
2018-06-08T10:15:00.434Z,32.90
2018-06-08T10:17:27.377Z,32.60
2018-06-08T10:19:54.297Z,31.40
2018-06-08T10:22:21.238Z,32.30
2018-06-08T10:24:48.158Z,30.40
2018-06-08T10:27:15.134Z,31.50
2018-06-08T10:29:42.046Z,30.60
2018-06-08T10:32:09.258Z,29.80
2018-06-08T10:34:36.182Z,30.00
2018-06-08T10:37:03.674Z,29.90
2018-06-08T10:39:31.116Z,28.80
2018-06-08T10:41:58.554Z,29.10
2018-06-08T10:44:26.019Z,29.60
2018-06-08T10:46:53.443Z,30.00
2018-06-08T10:49:21.136Z,30.40
2018-06-08T10:51:48.892Z,29.40
2018-06-08T10:54:16.590Z,29.50
2018-06-08T10:56:44.031Z,29.00
2018-06-08T11:01:38.438Z,29.20
2018-06-08T11:04:05.382Z,29.00
2018-06-08T11:06:32.318Z,28.70
2018-06-08T11:11:26.295Z,28.70
2018-06-08T11:13:53.221Z,28.30
2018-06-08T11:16:20.362Z,29.10
2018-06-08T11:18:47.304Z,28.50
2018-06-08T11:21:14.217Z,28.90
2018-06-08T11:23:41.158Z,26.20
2018-06-08T11:26:08.080Z,26.60
2018-06-08T11:28:35.021Z,26.60
2018-06-08T11:31:01.954Z,26.10
2018-06-08T11:33:28.898Z,27.50
2018-06-08T11:35:56.062Z,26.70
2018-06-08T11:38:22.997Z,27.60
2018-06-08T11:40:49.918Z,26.00
2018-06-08T11:43:16.861Z,25.70
2018-06-08T11:45:43.786Z,27.60
2018-06-08T11:48:10.721Z,28.60
2018-06-08T11:50:37.642Z,28.30
2018-06-08T11:53:04.590Z,27.70
2018-06-08T11:55:31.794Z,27.40
2018-06-08T11:57:59.010Z,27.60
2018-06-08T12:00:25.966Z,27.80
2018-06-08T12:02:52.906Z,27.90
2018-06-08T12:05:20.090Z,28.10
2018-06-08T12:07:47.046Z,27.20
2018-06-08T12:10:13.977Z,27.00
2018-06-08T12:12:40.894Z,27.00
2018-06-08T12:15:07.846Z,25.20
2018-06-08T12:17:34.766Z,26.60
2018-06-08T12:20:01.710Z,25.90
2018-06-08T12:22:28.646Z,25.50
2018-06-08T12:24:55.822Z,25.90
2018-06-08T12:27:22.741Z,25.20
2018-06-08T12:29:49.697Z,27.50
2018-06-08T12:32:16.933Z,27.40
2018-06-08T12:34:43.886Z,26.30
2018-06-08T12:37:10.811Z,27.00
2018-06-08T12:39:37.755Z,25.80
2018-06-08T12:44:31.627Z,26.50
2018-06-08T12:46:58.546Z,26.40
2018-06-08T12:49:25.758Z,27.10
2018-06-08T12:51:52.706Z,26.10
2018-06-08T12:54:19.625Z,27.30
2018-06-08T12:56:46.582Z,27.50
2018-06-08T12:59:13.504Z,27.50
2018-06-08T13:01:40.477Z,26.80
2018-06-08T13:04:07.394Z,27.10
2018-06-08T13:06:34.345Z,27.20
2018-06-08T13:09:01.271Z,27.80
2018-06-08T13:11:28.221Z,27.20
2018-06-08T13:13:55.146Z,26.40
2018-06-08T13:16:22.082Z,26.50
2018-06-08T13:18:48.997Z,25.80
2018-06-08T13:21:15.990Z,27.30
2018-06-08T13:23:42.902Z,27.30
2018-06-08T13:26:10.109Z,28.10
2018-06-08T13:28:37.025Z,28.90
2018-06-08T13:31:03.971Z,29.80
2018-06-08T13:33:30.881Z,29.70
2018-06-08T13:35:57.960Z,29.90
2018-06-08T13:38:24.869Z,30.00
2018-06-08T13:40:51.806Z,30.20
2018-06-08T13:43:18.741Z,29.90
2018-06-08T13:45:45.697Z,31.00
2018-06-08T13:48:12.614Z,30.00
2018-06-08T13:50:39.562Z,29.30
2018-06-08T13:53:06.481Z,28.60
2018-06-08T13:55:33.466Z,28.70
2018-06-08T13:58:00.641Z,28.80
2018-06-08T14:00:27.616Z,28.90
2018-06-08T14:02:54.531Z,29.30
2018-06-08T14:05:21.478Z,28.60
2018-06-08T14:07:48.735Z,28.50
2018-06-08T14:10:15.674Z,28.10
2018-06-08T14:12:42.950Z,27.70
2018-06-08T14:15:09.874Z,28.00
2018-06-08T14:17:36.813Z,28.60
2018-06-08T14:20:03.741Z,28.90
2018-06-08T14:22:30.678Z,29.60
2018-06-08T14:24:57.625Z,28.30
2018-06-08T14:27:24.560Z,29.10
2018-06-08T14:29:51.481Z,28.50
2018-06-08T14:32:18.433Z,28.40
2018-06-08T14:34:45.354Z,27.90
2018-06-08T14:37:12.303Z,27.70
2018-06-08T14:42:06.141Z,29.20
2018-06-08T14:44:33.054Z,29.20
2018-06-08T14:46:59.997Z,29.10
2018-06-08T14:49:26.923Z,28.60
2018-06-08T14:51:53.883Z,28.40
2018-06-08T14:54:20.806Z,29.30
2018-06-08T14:56:48.072Z,29.00
2018-06-08T14:59:14.985Z,28.00
2018-06-08T15:01:41.953Z,29.00
2018-06-08T15:04:08.861Z,28.30
2018-06-08T15:06:35.802Z,28.90
2018-06-08T15:09:04.220Z,28.00
2018-06-08T15:11:31.158Z,27.60
2018-06-08T15:13:58.070Z,27.80
2018-06-08T15:16:25.014Z,27.60
2018-06-08T15:18:51.933Z,27.70
2018-06-08T15:21:18.877Z,28.40
2018-06-08T15:23:45.794Z,28.10
2018-06-08T15:26:13.026Z,28.20
2018-06-08T15:28:39.966Z,29.20
2018-06-08T15:31:06.878Z,28.40
2018-06-08T15:33:33.818Z,29.30
2018-06-08T15:36:00.731Z,29.50
2018-06-08T15:38:27.673Z,29.00
2018-06-08T15:40:54.581Z,29.70
2018-06-08T15:43:21.518Z,29.50
2018-06-08T15:45:48.430Z,29.10
2018-06-08T15:48:15.406Z,29.30
2018-06-08T15:50:42.319Z,29.80
2018-06-08T15:53:09.261Z,29.50
2018-06-08T15:55:36.178Z,29.80
2018-06-08T15:58:03.114Z,30.10
2018-06-08T16:00:30.081Z,30.60
2018-06-08T16:02:57.031Z,30.60
2018-06-08T16:05:23.958Z,31.30
2018-06-08T16:07:50.902Z,31.50
2018-06-08T16:10:17.850Z,32.20
2018-06-08T16:12:44.789Z,31.80
2018-06-08T16:15:11.705Z,32.50
2018-06-08T16:17:38.646Z,31.90
2018-06-08T16:20:05.562Z,32.00
2018-06-08T16:22:32.965Z,31.70
2018-06-08T16:25:00.137Z,32.90
2018-06-08T16:27:27.087Z,33.80
2018-06-08T16:29:54.010Z,34.40
2018-06-08T16:32:20.950Z,34.20
2018-06-08T16:34:47.874Z,33.80
2018-06-08T16:37:15.140Z,35.00
2018-06-08T16:39:42.054Z,35.00
2018-06-08T16:42:08.991Z,35.80
2018-06-08T16:44:35.905Z,35.60
2018-06-08T16:47:03.226Z,34.80
2018-06-08T16:49:30.137Z,34.90
2018-06-08T16:51:57.054Z,35.40
2018-06-08T16:54:23.995Z,35.50
2018-06-08T16:56:51.178Z,36.00
2018-06-08T16:59:18.097Z,36.10
2018-06-08T17:01:45.087Z,36.70
2018-06-08T17:04:12.010Z,36.90
2018-06-08T17:06:38.962Z,35.70
2018-06-08T17:09:06.294Z,36.50
2018-06-08T17:11:33.237Z,36.60
2018-06-08T17:14:00.157Z,37.60
2018-06-08T17:16:27.130Z,35.90
2018-06-08T17:18:54.046Z,36.20
2018-06-08T17:21:21.221Z,37.00
2018-06-08T17:23:48.177Z,37.00
2018-06-08T17:26:15.118Z,37.00
2018-06-08T17:28:42.396Z,37.20
2018-06-08T17:31:09.374Z,36.20
2018-06-08T17:33:36.278Z,37.20
2018-06-08T17:36:03.287Z,38.50
2018-06-08T17:38:30.235Z,39.50
2018-06-08T17:40:57.162Z,37.90
2018-06-08T17:43:24.102Z,39.00
2018-06-08T17:45:51.022Z,39.40
2018-06-08T17:48:17.972Z,39.30
2018-06-08T17:50:44.886Z,39.30
2018-06-08T17:53:11.829Z,39.50
2018-06-08T17:55:39.074Z,40.40
2018-06-08T17:58:06.026Z,39.70
2018-06-08T18:00:33.140Z,39.40
2018-06-08T18:03:00.108Z,39.70
2018-06-08T18:05:27.049Z,39.50
2018-06-08T18:07:53.989Z,40.00
2018-06-08T18:10:20.901Z,40.10
2018-06-08T18:12:47.833Z,41.10
2018-06-08T18:15:14.746Z,41.40
2018-06-08T18:17:42.035Z,41.70
2018-06-08T18:20:08.909Z,42.10
2018-06-08T18:22:35.952Z,42.90
2018-06-08T18:25:02.917Z,43.70
2018-06-08T18:27:29.820Z,44.00
2018-06-08T18:29:57.089Z,44.50
2018-06-08T18:32:24.064Z,44.40
2018-06-08T18:34:50.981Z,44.60
2018-06-08T18:37:18.168Z,45.60
2018-06-08T18:39:45.133Z,45.40
2018-06-08T18:42:12.193Z,45.50
2018-06-08T18:44:39.246Z,45.50
2018-06-08T18:47:06.349Z,45.10
2018-06-08T18:49:33.268Z,45.90
2018-06-08T18:52:00.185Z,46.30
2018-06-08T18:54:27.133Z,46.20
2018-06-08T18:56:54.069Z,47.10
2018-06-08T18:59:21.065Z,47.60
2018-06-08T19:01:48.127Z,47.80
2018-06-08T19:04:15.066Z,47.60
2018-06-08T19:06:41.987Z,47.90
2018-06-08T19:09:08.973Z,48.10
2018-06-08T19:11:35.881Z,48.40
2018-06-08T19:14:02.921Z,48.10
2018-06-08T19:16:29.855Z,48.30
2018-06-08T19:18:57.131Z,48.70
2018-06-08T19:21:24.041Z,49.20
2018-06-08T19:23:51.225Z,49.80
2018-06-08T19:26:18.141Z,49.20
2018-06-08T19:28:45.110Z,49.30
2018-06-08T19:31:12.310Z,49.50
2018-06-08T19:33:39.261Z,49.60
2018-06-08T19:36:06.180Z,49.90
2018-06-08T19:38:33.101Z,49.90
2018-06-08T19:41:00.050Z,49.60
2018-06-08T19:43:27.004Z,49.80
2018-06-08T19:45:53.918Z,50.50
2018-06-08T19:48:20.839Z,49.70
2018-06-08T19:50:47.777Z,50.30
2018-06-08T19:53:14.692Z,50.90
2018-06-08T19:55:41.634Z,49.80
2018-06-08T19:58:08.545Z,50.20
2018-06-08T20:00:35.490Z,49.70
2018-06-08T20:03:02.706Z,49.90
2018-06-08T20:05:29.654Z,50.30
2018-06-08T20:07:56.573Z,50.40
2018-06-08T20:10:23.509Z,49.90
2018-06-08T20:12:50.423Z,51.30
2018-06-08T20:15:17.596Z,50.40
2018-06-08T20:17:44.505Z,50.10
2018-06-08T20:20:11.437Z,49.90
2018-06-08T20:22:38.352Z,49.70
2018-06-08T20:25:05.306Z,49.50
2018-06-08T20:27:32.219Z,49.70
2018-06-08T20:29:59.438Z,50.10
2018-06-08T20:32:26.350Z,50.20
2018-06-08T20:34:53.290Z,49.50
2018-06-08T20:37:20.446Z,49.50
2018-06-08T20:39:47.397Z,48.90
2018-06-08T20:42:14.309Z,49.50
2018-06-08T20:44:41.241Z,49.20
2018-06-08T20:47:08.158Z,49.90
2018-06-08T20:52:02.002Z,50.20
2018-06-08T20:54:28.956Z,49.80
2018-06-08T20:57:01.595Z,50.00
2018-06-08T20:59:28.562Z,49.80
2018-06-08T21:01:55.484Z,49.90
2018-06-08T21:04:22.438Z,50.10
2018-06-08T21:06:49.362Z,49.70
2018-06-08T21:09:16.312Z,49.90
2018-06-08T21:11:43.230Z,49.50
2018-06-08T21:14:10.173Z,50.00
2018-06-08T21:16:37.101Z,49.70
2018-06-08T21:19:04.254Z,49.60
2018-06-08T21:21:31.187Z,49.80
2018-06-08T21:23:58.138Z,49.50
2018-06-08T21:26:25.074Z,49.40
2018-06-08T21:28:51.985Z,47.90
2018-06-08T21:31:18.926Z,48.40
2018-06-08T21:33:45.837Z,50.20
2018-06-08T21:36:12.815Z,50.60
2018-06-08T21:38:39.739Z,50.40
2018-06-08T21:41:06.682Z,51.50
2018-06-08T21:43:33.921Z,50.60
2018-06-08T21:46:00.861Z,49.30
2018-06-08T21:48:27.777Z,50.10
2018-06-08T21:50:54.719Z,50.20
2018-06-08T21:53:21.646Z,50.10
2018-06-08T21:55:48.587Z,50.30
2018-06-08T21:58:15.801Z,50.10
2018-06-08T22:00:42.786Z,49.50
2018-06-08T22:03:09.714Z,49.50
2018-06-08T22:05:36.632Z,49.60
2018-06-08T22:08:03.566Z,49.50
2018-06-08T22:10:30.494Z,50.20
2018-06-08T22:12:57.701Z,49.90
2018-06-08T22:15:24.615Z,50.80
2018-06-08T22:17:51.562Z,50.30
2018-06-08T22:23:22.354Z,49.90
2018-06-08T22:25:49.275Z,50.20
2018-06-08T22:28:16.213Z,51.10
2018-06-08T22:30:43.134Z,50.80
2018-06-08T22:33:10.345Z,51.30
2018-06-08T22:35:37.270Z,51.40
2018-06-08T22:38:04.220Z,51.70
2018-06-08T22:40:31.134Z,51.70
2018-06-08T22:42:58.074Z,51.10
2018-06-08T22:45:24.985Z,50.90
2018-06-08T22:47:52.090Z,51.60
2018-06-08T22:50:19.005Z,50.90
2018-06-08T22:52:45.918Z,51.60
2018-06-08T22:55:12.853Z,51.00
2018-06-08T22:57:39.778Z,51.00
2018-06-08T23:00:06.833Z,51.70
2018-06-08T23:02:33.752Z,52.00
2018-06-08T23:05:00.694Z,52.90
2018-06-08T23:07:27.855Z,52.40
2018-06-08T23:09:54.794Z,52.80
2018-06-08T23:12:21.702Z,53.30
2018-06-08T23:14:52.173Z,53.70
2018-06-08T23:17:19.190Z,54.20
2018-06-08T23:19:48.193Z,54.50
2018-06-08T23:22:15.126Z,55.20
2018-06-08T23:24:42.597Z,55.40
2018-06-08T23:27:10.239Z,56.10
2018-06-08T23:29:37.516Z,56.20
2018-06-08T23:32:04.581Z,56.90
2018-06-08T23:34:31.531Z,56.20
2018-06-08T23:36:58.441Z,56.30
2018-06-08T23:39:25.394Z,56.80
2018-06-08T23:41:52.307Z,56.50
2018-06-08T23:46:46.164Z,57.50
2018-06-08T23:49:13.227Z,57.50
2018-06-08T23:51:40.174Z,58.30
2018-06-08T23:54:07.109Z,58.00
2018-06-08T23:56:34.033Z,58.00
2018-06-08T23:59:01.635Z,58.30
